createdAt,value
2016-06-02T12:44:47.256Z,190
2016-06-02T12:45:47.294Z,150
2016-06-02T12:46:47.097Z,125
2016-06-02T12:47:47.321Z,115
2016-06-02T12:48:47.108Z,105
2016-06-02T12:49:47.083Z,100
2016-06-02T12:50:47.243Z,105
2016-06-02T12:51:47.309Z,100
2016-06-02T12:52:47.250Z,95
2016-06-02T12:53:46.895Z,95
2016-06-02T12:54:47.727Z,95
2016-06-02T12:55:47.355Z,100
2016-06-02T12:56:47.202Z,90
2016-06-02T12:57:47.252Z,95
2016-06-02T12:58:47.162Z,90
2016-06-02T12:59:47.180Z,85
2016-06-02T13:00:47.168Z,80
2016-06-02T13:01:47.077Z,80
2016-06-02T13:02:46.861Z,75
2016-06-02T13:03:47.176Z,80
2016-06-02T13:04:47.163Z,80
2016-06-02T13:05:47.198Z,80
2016-06-02T13:06:47.137Z,85
2016-06-02T13:07:47.156Z,85
2016-06-02T13:08:47.143Z,85
2016-06-02T13:09:47.131Z,85
2016-06-02T13:10:47.337Z,85
2016-06-02T13:11:47.120Z,90
2016-06-02T13:12:47.107Z,95
2016-06-02T13:13:46.954Z,100
2016-06-02T13:14:47.113Z,100
2016-06-02T13:15:47.084Z,105
2016-06-02T13:16:47.071Z,110
2016-06-02T13:17:47.090Z,110
2016-06-02T13:18:47.108Z,115
2016-06-02T13:19:47.064Z,120
2016-06-02T13:20:47.050Z,120
2016-06-02T13:21:46.913Z,120
2016-06-02T13:22:47.072Z,115
2016-06-02T13:23:47.059Z,115
2016-06-02T13:24:48.014Z,115
2016-06-02T13:25:47.470Z,115
2016-06-02T13:26:47.051Z,120
2016-06-02T13:27:47.054Z,120
2016-06-02T13:28:47.103Z,120
2016-06-02T13:29:46.872Z,120
2016-06-02T13:30:47.015Z,120
2016-06-02T13:31:47.033Z,125
2016-06-02T13:32:47.021Z,120
2016-06-02T13:33:46.992Z,120
2016-06-02T13:34:47.057Z,115
2016-06-02T13:35:46.982Z,110
2016-06-02T13:36:46.829Z,105
2016-06-02T13:37:46.815Z,95
2016-06-02T13:38:46.818Z,80
2016-06-02T13:39:46.851Z,60
2016-06-02T13:40:47.777Z,45
2016-06-02T13:41:46.982Z,35
2016-06-02T13:42:46.938Z,30
2016-06-02T13:43:46.926Z,30
2016-06-02T13:44:46.943Z,25
2016-06-02T13:45:46.773Z,25
2016-06-02T13:46:46.965Z,25
2016-06-02T13:47:46.951Z,25
2016-06-02T13:48:46.907Z,25
2016-06-02T13:49:46.909Z,20
2016-06-02T13:50:46.897Z,20
2016-06-02T13:51:46.900Z,15
2016-06-02T13:52:46.887Z,10
2016-06-02T13:53:46.858Z,10
2016-06-02T13:54:46.970Z,10
2016-06-02T13:55:46.723Z,5
2016-06-02T13:56:46.882Z,5
2016-06-02T13:57:46.853Z,5
2016-06-02T13:58:46.716Z,5
2016-06-02T13:59:46.671Z,5
2016-06-02T14:00:46.814Z,5
2016-06-02T14:01:46.802Z,5
2016-06-02T14:02:46.788Z,5
2016-06-02T14:03:46.869Z,5
2016-06-02T14:04:46.825Z,5
2016-06-02T14:05:46.797Z,5
2016-06-02T14:06:46.768Z,5
2016-06-02T14:07:46.427Z,5
2016-06-02T14:08:46.618Z,0
2016-06-02T14:09:48.213Z,0
2016-06-02T14:10:47.107Z,0
2016-06-02T14:11:46.735Z,5
2016-06-02T14:12:46.721Z,5
2016-06-02T14:13:46.553Z,5
2016-06-02T14:14:46.524Z,5
2016-06-02T14:15:46.809Z,5
2016-06-02T14:16:46.686Z,5
2016-06-02T14:17:46.376Z,5
2016-06-02T14:18:46.504Z,5
2016-06-02T14:19:46.647Z,5
2016-06-02T14:20:46.634Z,5
2016-06-02T14:21:46.621Z,5
2016-06-02T14:22:46.623Z,5
2016-06-02T14:23:46.689Z,5
2016-06-02T14:24:47.191Z,5
2016-06-02T14:25:46.694Z,5
2016-06-02T14:26:49.072Z,5
2016-06-02T14:27:46.465Z,10
2016-06-02T14:28:46.625Z,10
2016-06-02T14:29:46.471Z,10
2016-06-02T14:30:46.380Z,10
2016-06-02T14:31:49.711Z,10
2016-06-02T14:32:46.510Z,10
2016-06-02T14:33:46.512Z,10
2016-06-02T14:34:46.499Z,10
2016-06-02T14:35:46.472Z,10
2016-06-02T14:36:47.286Z,10
2016-06-02T14:37:46.461Z,15
2016-06-02T14:38:46.433Z,15
2016-06-02T14:39:48.138Z,15
2016-06-02T14:40:47.750Z,15
2016-06-02T14:41:47.847Z,15
2016-06-02T14:42:46.412Z,15
2016-06-02T14:43:46.399Z,15
2016-06-02T14:44:46.402Z,15
2016-06-02T14:45:46.374Z,15
2016-06-02T14:46:47.891Z,15
2016-06-02T14:47:46.362Z,15
2016-06-02T14:48:46.365Z,15
2016-06-02T14:49:46.353Z,20
2016-06-02T14:50:46.481Z,20
2016-06-02T14:51:46.311Z,20
2016-06-02T14:52:46.392Z,20
2016-06-02T14:53:46.285Z,20
2016-06-02T14:54:46.163Z,20
2016-06-02T14:55:46.837Z,20
2016-06-02T14:56:46.325Z,20
2016-06-02T14:57:46.109Z,20
2016-06-02T14:58:46.158Z,25
2016-06-02T14:59:46.254Z,25
2016-06-02T15:00:46.289Z,25
2016-06-02T15:01:46.228Z,25
2016-06-02T15:02:46.247Z,25
2016-06-02T15:03:46.218Z,30
2016-06-02T15:04:46.315Z,30
2016-06-02T15:05:46.036Z,30
2016-06-02T15:06:46.024Z,30
2016-06-02T15:07:46.182Z,30
2016-06-02T15:08:46.201Z,30
2016-06-02T15:09:46.188Z,30
2016-06-02T15:10:47.924Z,30
2016-06-02T15:11:46.130Z,35
2016-06-02T15:12:46.133Z,35
2016-06-02T15:13:46.104Z,35
2016-06-02T15:14:46.154Z,35
2016-06-02T15:15:46.078Z,35
2016-06-02T15:16:46.082Z,35
2016-06-02T15:17:46.100Z,35
2016-06-02T15:18:46.056Z,35
2016-06-02T15:19:46.074Z,35
2016-06-02T15:20:46.108Z,40
2016-06-02T15:21:46.064Z,40
2016-06-02T15:22:45.895Z,40
2016-06-02T15:23:46.022Z,45
2016-06-02T15:24:45.728Z,50
2016-06-02T15:25:46.778Z,50
2016-06-02T15:26:45.983Z,55
2016-06-02T15:27:45.845Z,60
2016-06-02T15:28:45.973Z,60
2016-06-02T15:29:46.008Z,60
2016-06-02T15:30:45.947Z,65
2016-06-02T15:31:45.950Z,65
2016-06-02T15:32:45.953Z,65
2016-06-02T15:33:45.830Z,65
2016-06-02T15:34:45.927Z,65
2016-06-02T15:35:45.899Z,70
2016-06-02T15:36:45.886Z,70
2016-06-02T15:37:45.889Z,70
2016-06-02T15:38:45.844Z,70
2016-06-02T15:39:46.581Z,70
2016-06-02T15:40:45.912Z,70
2016-06-02T15:41:45.993Z,70
2016-06-02T15:42:45.902Z,75
2016-06-02T15:43:45.826Z,75
2016-06-02T15:44:45.812Z,75
2016-06-02T15:45:45.643Z,80
2016-06-02T15:46:45.974Z,80
2016-06-02T15:47:45.806Z,85
2016-06-02T15:48:45.762Z,85
2016-06-02T15:49:45.811Z,85
2016-06-02T15:50:45.610Z,85
2016-06-02T15:51:45.895Z,90
2016-06-02T15:52:45.772Z,85
2016-06-02T15:53:45.822Z,85
2016-06-02T15:54:46.278Z,85
2016-06-02T15:55:45.749Z,85
2016-06-02T15:56:45.736Z,85
2016-06-02T15:57:45.769Z,85
2016-06-02T15:58:45.710Z,80
2016-06-02T15:59:45.729Z,80
2016-06-02T16:00:45.684Z,80
2016-06-02T16:01:45.781Z,80
2016-06-02T16:02:45.675Z,80
2016-06-02T16:03:45.708Z,80
2016-06-02T16:04:45.522Z,80
2016-06-02T16:05:45.651Z,80
2016-06-02T16:06:45.622Z,80
2016-06-02T16:07:45.672Z,80
2016-06-02T16:08:45.597Z,80
2016-06-02T16:09:46.880Z,80
2016-06-02T16:10:45.617Z,80
2016-06-02T16:11:45.589Z,80
2016-06-02T16:12:45.577Z,80
2016-06-02T16:13:45.610Z,75
2016-06-02T16:14:45.550Z,75
2016-06-02T16:15:45.552Z,75
2016-06-02T16:16:45.399Z,75
2016-06-02T16:17:45.557Z,70
2016-06-02T16:18:45.530Z,70
2016-06-02T16:19:45.532Z,65
2016-06-02T16:20:45.487Z,60
2016-06-02T16:21:45.490Z,55
2016-06-02T16:22:45.493Z,55
2016-06-02T16:23:45.496Z,50
2016-06-02T16:24:46.201Z,50
2016-06-02T16:25:46.736Z,50
2016-06-02T16:26:45.473Z,50
2016-06-02T16:27:45.475Z,50
2016-06-02T16:28:45.448Z,50
2016-06-02T16:29:45.434Z,45
2016-06-02T16:30:45.422Z,45
2016-06-02T16:31:45.408Z,45
2016-06-02T16:32:45.473Z,45
2016-06-02T16:33:45.367Z,45
2016-06-02T16:34:45.448Z,50
2016-06-02T16:35:45.388Z,50
2016-06-02T16:36:45.438Z,50
2016-06-02T16:37:45.347Z,55
2016-06-02T16:38:45.333Z,55
2016-06-02T16:39:45.914Z,55
2016-06-02T16:40:46.120Z,55
2016-06-02T16:41:45.341Z,55
2016-06-02T16:42:45.313Z,55
2016-06-02T16:43:45.300Z,60
2016-06-02T16:44:45.350Z,60
2016-06-02T16:45:45.290Z,60
2016-06-02T16:46:45.276Z,60
2016-06-02T16:47:45.280Z,65
2016-06-02T16:48:45.313Z,65
2016-06-02T16:49:45.098Z,65
2016-06-02T16:50:45.240Z,65
2016-06-02T16:51:45.243Z,65
2016-06-02T16:52:45.309Z,65
2016-06-02T16:53:45.217Z,60
2016-06-02T16:54:45.565Z,60
2016-06-02T16:55:46.504Z,60
2016-06-02T16:56:45.179Z,65
2016-06-02T16:57:45.198Z,55
2016-06-02T16:58:45.184Z,60
2016-06-02T16:59:45.186Z,55
2016-06-02T17:00:45.174Z,55
2016-06-02T17:01:45.145Z,50
2016-06-02T17:02:45.132Z,50
2016-06-02T17:03:45.104Z,50
2016-06-02T17:04:45.091Z,50
2016-06-02T17:05:45.109Z,50
2016-06-02T17:06:45.081Z,50
2016-06-02T17:07:45.067Z,50
2016-06-02T17:08:45.070Z,50
2016-06-02T17:09:45.136Z,50
2016-06-02T17:10:47.216Z,50
2016-06-02T17:11:45.063Z,50
2016-06-02T17:12:45.035Z,50
2016-06-02T17:13:44.943Z,50
2016-06-02T17:14:44.993Z,50
2016-06-02T17:15:45.011Z,45
2016-06-02T17:16:44.982Z,45
2016-06-02T17:17:44.985Z,45
2016-06-02T17:18:44.972Z,45
2016-06-02T17:19:45.006Z,45
2016-06-02T17:20:44.963Z,45
2016-06-02T17:21:45.059Z,45
2016-06-02T17:22:44.936Z,40
2016-06-02T17:23:44.954Z,40
2016-06-02T17:24:45.707Z,40
2016-06-02T17:25:44.648Z,40
2016-06-02T17:26:44.915Z,40
2016-06-02T17:27:44.871Z,40
2016-06-02T17:28:44.874Z,40
2016-06-02T17:29:44.862Z,40
2016-06-02T17:30:44.879Z,40
2016-06-02T17:31:44.851Z,40
2016-06-02T17:32:44.854Z,40
2016-06-02T17:33:44.842Z,40
2016-06-02T17:34:44.828Z,40
2016-06-02T17:35:44.878Z,40
2016-06-02T17:36:44.817Z,40
2016-06-02T17:37:44.883Z,40
2016-06-02T17:38:44.776Z,40
2016-06-02T17:39:46.186Z,45
2016-06-02T17:40:44.813Z,50
2016-06-02T17:41:44.816Z,55
2016-06-02T17:42:44.741Z,55
2016-06-02T17:43:44.758Z,50
2016-06-02T17:44:44.714Z,50
2016-06-02T17:45:44.795Z,50
2016-06-02T17:46:44.704Z,50
2016-06-02T17:47:44.754Z,50
2016-06-02T17:48:44.693Z,50
2016-06-02T17:49:44.681Z,45
2016-06-02T17:50:44.699Z,45
2016-06-02T17:51:44.654Z,45
2016-06-02T17:52:44.643Z,45
2016-06-02T17:53:44.660Z,45
2016-06-02T17:54:44.663Z,40
2016-06-02T17:55:44.493Z,40
2016-06-02T17:56:44.637Z,35
2016-06-02T17:57:44.624Z,40
2016-06-02T17:58:44.611Z,35
2016-06-02T17:59:44.582Z,40
2016-06-02T18:00:44.585Z,40
2016-06-02T18:01:44.588Z,45
2016-06-02T18:02:44.590Z,40
2016-06-02T18:03:44.562Z,40
2016-06-02T18:04:44.517Z,40
2016-06-02T18:05:44.536Z,40
2016-06-02T18:06:44.539Z,40
2016-06-02T18:07:44.511Z,40
2016-06-02T18:08:44.514Z,40
2016-06-02T18:09:44.813Z,40
2016-06-02T18:10:44.347Z,40
2016-06-02T18:11:44.474Z,35
2016-06-02T18:12:44.492Z,35
2016-06-02T18:13:44.433Z,35
2016-06-02T18:14:44.451Z,35
2016-06-02T18:15:44.423Z,35
2016-06-02T18:16:44.441Z,35
2016-06-02T18:17:44.224Z,35
2016-06-02T18:18:44.430Z,35
2016-06-02T18:19:44.386Z,35
2016-06-02T18:20:44.436Z,35
2016-06-02T18:21:44.376Z,35
2016-06-02T18:22:44.457Z,30
2016-06-02T18:23:44.351Z,30
2016-06-02T18:24:44.821Z,30
2016-06-02T18:25:45.841Z,30
2016-06-02T18:26:44.326Z,30
2016-06-02T18:27:44.329Z,30
2016-06-02T18:28:44.301Z,30
2016-06-02T18:29:44.273Z,30
2016-06-02T18:30:44.290Z,30
2016-06-02T18:31:44.263Z,30
2016-06-02T18:32:44.078Z,30
2016-06-02T18:33:44.095Z,25
2016-06-02T18:34:44.098Z,25
2016-06-02T18:35:44.211Z,25
2016-06-02T18:36:44.292Z,25
2016-06-02T18:37:44.247Z,25
2016-06-02T18:38:44.251Z,25
2016-06-02T18:39:44.502Z,25
2016-06-02T18:40:44.427Z,25
2016-06-02T18:41:44.195Z,25
2016-06-02T18:42:44.152Z,25
2016-06-02T18:43:44.155Z,20
2016-06-02T18:44:44.158Z,20
2016-06-02T18:45:44.144Z,20
2016-06-02T18:46:44.131Z,20
2016-06-02T18:47:43.962Z,20
2016-06-02T18:48:44.121Z,20
2016-06-02T18:49:44.092Z,20
2016-06-02T18:50:44.049Z,20
2016-06-02T18:51:44.051Z,20
2016-06-02T18:52:44.068Z,20
2016-06-02T18:53:44.025Z,15
2016-06-02T18:54:43.793Z,15
2016-06-02T18:55:43.983Z,15
2016-06-02T18:56:44.018Z,15
2016-06-02T18:57:44.129Z,15
2016-06-02T18:58:44.007Z,15
2016-06-02T18:59:43.994Z,15
2016-06-02T19:00:43.966Z,15
2016-06-02T19:01:43.953Z,15
2016-06-02T19:02:43.940Z,15
2016-06-02T19:03:44.051Z,15
2016-06-02T19:04:43.945Z,15
2016-06-02T19:05:43.995Z,10
2016-06-02T19:06:43.934Z,10
2016-06-02T19:07:43.985Z,10
2016-06-02T19:08:43.893Z,10
2016-06-02T19:09:44.771Z,10
2016-06-02T19:10:44.289Z,10
2016-06-02T19:11:43.901Z,10
2016-06-02T19:12:43.842Z,10
2016-06-02T19:13:43.720Z,10
2016-06-02T19:14:43.847Z,10
2016-06-02T19:15:43.819Z,10
2016-06-02T19:16:43.822Z,10
2016-06-02T19:17:43.824Z,5
2016-06-02T19:18:43.795Z,5
2016-06-02T19:19:43.798Z,5
2016-06-02T19:20:43.786Z,5
2016-06-02T19:21:43.772Z,5
2016-06-02T19:22:43.744Z,5
2016-06-02T19:23:43.793Z,5
2016-06-02T19:24:43.733Z,5
2016-06-02T19:25:44.939Z,5
2016-06-02T19:26:43.723Z,5
2016-06-02T19:27:43.569Z,5
2016-06-02T19:28:43.541Z,5
2016-06-02T19:29:43.684Z,5
2016-06-02T19:30:43.656Z,5
2016-06-02T19:31:43.674Z,5
2016-06-02T19:32:43.661Z,0
2016-06-02T19:33:43.632Z,0
2016-06-02T19:34:43.634Z,0
2016-06-02T19:35:43.466Z,0
2016-06-02T19:36:43.609Z,0
2016-06-02T19:37:43.596Z,0
2016-06-02T19:38:43.584Z,0
2016-06-02T19:39:43.601Z,0
2016-06-02T19:40:44.198Z,0
2016-06-02T19:41:43.545Z,0
2016-06-02T19:42:43.531Z,0
2016-06-02T19:43:43.534Z,0
2016-06-02T19:44:43.365Z,0
2016-06-02T19:45:43.492Z,0
2016-06-02T19:46:43.511Z,0
2016-06-02T19:47:43.467Z,0
2016-06-02T19:48:43.469Z,0
2016-06-02T19:49:43.472Z,0
2016-06-02T19:50:43.460Z,0
2016-06-02T19:51:43.431Z,0
2016-06-02T19:52:43.418Z,0
2016-06-02T19:53:43.405Z,0
2016-06-02T19:54:43.438Z,0
2016-06-02T19:55:43.629Z,0
2016-06-02T19:56:43.241Z,0
2016-06-02T19:57:43.384Z,0
2016-06-02T19:58:43.402Z,0
2016-06-02T19:59:43.390Z,0
2016-06-02T20:00:43.408Z,0
2016-06-02T20:01:43.317Z,0
2016-06-02T20:02:43.320Z,0
2016-06-02T20:03:43.323Z,0
2016-06-02T20:04:43.293Z,0
2016-06-02T20:05:43.281Z,0
2016-06-02T20:06:43.331Z,0
2016-06-02T20:07:43.286Z,0
2016-06-02T20:08:45.445Z,0
2016-06-02T20:09:44.995Z,0
2016-06-02T20:10:43.467Z,0
2016-06-02T20:11:43.235Z,0
2016-06-02T20:12:43.222Z,0
2016-06-02T20:13:44.771Z,0
2016-06-02T20:14:43.181Z,0
2016-06-02T20:15:43.167Z,0
2016-06-02T20:16:43.185Z,0
2016-06-02T20:17:43.141Z,0
2016-06-02T20:18:43.161Z,0
2016-06-02T20:19:43.131Z,0
2016-06-02T20:20:43.133Z,0
2016-06-02T20:21:43.121Z,0
2016-06-02T20:22:43.233Z,0
2016-06-02T20:23:43.095Z,0
2016-06-02T20:24:43.458Z,0
2016-06-02T20:25:42.850Z,0
2016-06-02T20:26:43.056Z,0
2016-06-02T20:27:43.028Z,0
2016-06-02T20:28:42.890Z,0
2016-06-02T20:29:43.018Z,0
2016-06-02T20:30:42.880Z,0
2016-06-02T20:31:42.992Z,0
2016-06-02T20:32:42.823Z,0
2016-06-02T20:33:42.997Z,0
2016-06-02T20:34:42.984Z,0
2016-06-02T20:35:42.970Z,0
2016-06-02T20:36:42.959Z,0
2016-06-02T20:37:42.945Z,0
2016-06-02T20:38:42.932Z,0
2016-06-02T20:39:42.779Z,0
2016-06-02T20:40:43.094Z,0
2016-06-02T20:41:42.893Z,0
2016-06-02T20:42:42.865Z,0
2016-06-02T20:43:42.853Z,0
2016-06-02T20:44:42.886Z,0
2016-06-02T20:45:42.701Z,0
2016-06-02T20:46:42.828Z,0
2016-06-02T20:47:42.831Z,0
2016-06-02T20:48:42.802Z,0
2016-06-02T20:49:42.836Z,0
2016-06-02T20:50:42.808Z,0
2016-06-02T20:51:42.842Z,0
2016-06-02T20:52:42.782Z,0
2016-06-02T20:53:42.644Z,0
2016-06-02T20:54:42.460Z,0
2016-06-02T20:55:42.805Z,0
2016-06-02T20:56:42.731Z,0
2016-06-02T20:57:42.718Z,0
2016-06-02T20:58:42.721Z,0
2016-06-02T20:59:42.723Z,0
2016-06-02T21:00:42.710Z,0
2016-06-02T21:01:42.666Z,0
2016-06-02T21:02:42.684Z,0
2016-06-02T21:03:42.515Z,0
2016-06-02T21:04:42.627Z,0
2016-06-02T21:05:42.723Z,0
2016-06-02T21:06:42.632Z,0
2016-06-02T21:07:42.604Z,0
2016-06-02T21:08:42.606Z,0
2016-06-02T21:09:42.359Z,0
2016-06-02T21:10:43.393Z,0
2016-06-02T21:11:42.568Z,0
2016-06-02T21:12:42.555Z,0
2016-06-02T21:13:42.558Z,0
2016-06-02T21:14:42.513Z,0
2016-06-02T21:15:42.359Z,0
2016-06-02T21:16:42.362Z,0
2016-06-02T21:17:42.584Z,0
2016-06-02T21:18:42.336Z,0
2016-06-02T21:19:42.527Z,0
2016-06-02T21:20:42.467Z,0
2016-06-02T21:21:44.797Z,0
2016-06-02T21:22:42.425Z,0
2016-06-02T21:23:42.475Z,0
2016-06-02T21:24:42.447Z,0
2016-06-02T21:25:44.465Z,0
2016-06-02T21:26:42.249Z,0
2016-06-02T21:27:42.391Z,0
2016-06-02T21:28:42.363Z,0
2016-06-02T21:29:42.383Z,0
2016-06-02T21:30:42.353Z,0
2016-06-02T21:31:42.324Z,0
2016-06-02T21:32:42.327Z,0
2016-06-02T21:33:42.330Z,0
2016-06-02T21:34:42.302Z,0
2016-06-02T21:35:42.305Z,0
2016-06-02T21:36:41.994Z,0
2016-06-02T21:37:42.278Z,0
2016-06-02T21:38:42.250Z,0
2016-06-02T21:39:42.034Z,0
2016-06-02T21:40:43.305Z,0
2016-06-02T21:41:42.114Z,0
2016-06-02T21:42:42.298Z,0
2016-06-02T21:43:42.311Z,0
2016-06-02T21:44:42.306Z,0
2016-06-02T21:45:42.309Z,0
2016-06-02T21:46:42.320Z,0
2016-06-02T21:47:42.301Z,0
2016-06-02T21:48:42.328Z,0
2016-06-02T21:49:42.309Z,0
2016-06-02T21:50:42.348Z,0
2016-06-02T21:51:42.276Z,0
2016-06-02T21:52:42.281Z,0
2016-06-02T21:53:42.271Z,0
2016-06-02T21:54:43.183Z,0
2016-06-02T21:55:42.438Z,0
2016-06-02T21:56:42.254Z,0
2016-06-02T21:57:42.257Z,0
2016-06-02T21:58:42.246Z,0
2016-06-02T21:59:42.219Z,0
2016-06-02T22:00:42.019Z,0
2016-06-02T22:01:42.194Z,0
2016-06-02T22:02:42.385Z,0
2016-06-02T22:03:42.152Z,0
2016-06-02T22:04:42.203Z,0
2016-06-02T22:05:42.159Z,0
2016-06-02T22:06:42.147Z,0
2016-06-02T22:07:42.117Z,0
2016-06-02T22:08:42.136Z,0
2016-06-02T22:09:42.155Z,0
2016-06-02T22:10:43.000Z,0
2016-06-02T22:11:42.097Z,0
2016-06-02T22:12:42.069Z,0
2016-06-02T22:13:42.056Z,0
2016-06-02T22:14:42.089Z,0
2016-06-02T22:15:42.061Z,0
2016-06-02T22:16:42.063Z,0
2016-06-02T22:17:42.019Z,0
2016-06-02T22:18:41.849Z,0
2016-06-02T22:19:41.993Z,0
2016-06-02T22:20:42.012Z,0
2016-06-02T22:21:41.983Z,0
2016-06-02T22:22:41.954Z,0
2016-06-02T22:23:41.910Z,0
2016-06-02T22:24:42.226Z,0
2016-06-02T22:25:42.151Z,0
2016-06-02T22:26:41.903Z,0
2016-06-02T22:27:41.890Z,0
2016-06-02T22:28:41.876Z,0
2016-06-02T22:29:41.880Z,0
2016-06-02T22:30:41.867Z,0
2016-06-02T22:31:41.854Z,0
2016-06-02T22:32:41.684Z,0
2016-06-02T22:33:41.844Z,0
2016-06-02T22:34:41.799Z,0
2016-06-02T22:35:41.802Z,0
2016-06-02T22:36:41.789Z,0
2016-06-02T22:37:41.792Z,0
2016-06-02T22:38:41.763Z,0
2016-06-02T22:39:42.078Z,0
2016-06-02T22:40:42.409Z,0
2016-06-02T22:41:41.741Z,0
2016-06-02T22:42:41.728Z,0
2016-06-02T22:43:41.729Z,0
2016-06-02T22:44:41.686Z,0
2016-06-02T22:45:41.532Z,0
2016-06-02T22:46:41.535Z,0
2016-06-02T22:47:41.663Z,0
2016-06-02T22:48:41.650Z,0
2016-06-02T22:49:41.637Z,0
2016-06-02T22:50:41.608Z,0
2016-06-02T22:51:41.674Z,0
2016-06-02T22:52:41.473Z,0
2016-06-02T22:53:41.601Z,0
2016-06-02T22:54:41.462Z,0
2016-06-02T22:55:42.012Z,0
2016-06-02T22:56:41.546Z,0
2016-06-02T22:57:41.534Z,0
2016-06-02T22:58:41.551Z,0
2016-06-02T22:59:41.601Z,0
2016-06-02T23:00:41.510Z,0
2016-06-02T23:01:41.529Z,0
2016-06-02T23:02:41.515Z,0
2016-06-02T23:03:41.518Z,0
2016-06-02T23:04:41.474Z,0
2016-06-02T23:05:41.492Z,0
2016-06-02T23:06:41.433Z,0
2016-06-02T23:07:41.436Z,0
2016-06-02T23:08:41.406Z,0
2016-06-02T23:09:41.441Z,0
2016-06-02T23:10:42.443Z,0
2016-06-02T23:11:41.399Z,0
2016-06-02T23:12:41.355Z,0
2016-06-02T23:13:41.389Z,0
2016-06-02T23:14:41.344Z,0
2016-06-02T23:15:41.347Z,0
2016-06-02T23:16:41.319Z,0
2016-06-02T23:17:41.337Z,0
2016-06-02T23:18:41.293Z,0
2016-06-02T23:19:41.389Z,0
2016-06-02T23:20:41.282Z,0
2016-06-02T23:21:41.254Z,0
2016-06-02T23:22:41.240Z,0
2016-06-02T23:23:41.291Z,0
2016-06-02T23:24:41.244Z,0
2016-06-02T23:25:41.184Z,0
2016-06-02T23:26:41.202Z,0
2016-06-02T23:27:41.205Z,0
2016-06-02T23:28:41.176Z,0
2016-06-02T23:29:41.257Z,0
2016-06-02T23:30:41.166Z,0
2016-06-02T23:31:41.216Z,0
2016-06-02T23:32:41.125Z,0
2016-06-02T23:33:41.002Z,0
2016-06-02T23:34:41.114Z,0
2016-06-02T23:35:41.117Z,0
2016-06-02T23:36:41.104Z,0
2016-06-02T23:37:41.076Z,0
2016-06-02T23:38:41.062Z,0
2016-06-02T23:39:40.800Z,0
2016-06-02T23:40:40.912Z,0
2016-06-02T23:41:40.946Z,0
2016-06-02T23:42:41.026Z,0
2016-06-02T23:43:41.044Z,0
2016-06-02T23:44:41.000Z,0
2016-06-02T23:45:40.988Z,0
2016-06-02T23:46:40.974Z,0
2016-06-02T23:47:40.978Z,0
2016-06-02T23:48:40.933Z,0
2016-06-02T23:49:40.952Z,0
2016-06-02T23:50:40.923Z,0
2016-06-02T23:51:40.910Z,0
2016-06-02T23:52:40.897Z,0
2016-06-02T23:53:40.900Z,0
2016-06-02T23:54:41.371Z,0
2016-06-02T23:55:42.062Z,0
2016-06-02T23:56:40.924Z,0
2016-06-02T23:57:40.863Z,0
2016-06-02T23:58:40.913Z,0
2016-06-02T23:59:40.823Z,0
